Time;durP1;ratioP1;P1;durP2;ratioP2;P2;SDS_P1;SDS_P2;PMS_P1;PMS_P2;Temp;Humidity;BMP_temperature;BMP_pressure;BME280_temperature;BME280_humidity;BME280_pressure;Samples;Min_cycle;Max_cycle;Signal;HPM_P1;HPM_P2
2023/07/31 00:00:33;;;;;;;3.28;2.40;;;19.70;49.30;;;;;;20445;6860;325552;-70
2023/07/31 00:02:58;;;;;;;2.05;1.95;;;19.90;49.00;;;;;;20722;6845;121479;-70
2023/07/31 00:05:24;;;;;;;2.17;1.80;;;19.70;49.50;;;;;;20716;6845;117531;-70
2023/07/31 00:07:49;;;;;;;4.05;2.15;;;19.30;50.20;;;;;;20639;6860;117704;-70
2023/07/31 00:10:15;;;;;;;5.62;2.30;;;18.90;50.70;;;;;;20435;6845;307281;-69
2023/07/31 00:12:40;;;;;;;2.47;1.97;;;19.00;50.60;;;;;;20698;6841;117150;-72
2023/07/31 00:15:06;;;;;;;3.03;2.45;;;18.90;50.80;;;;;;20422;6841;337568;-70
2023/07/31 00:17:32;;;;;;;4.17;2.27;;;19.00;50.90;;;;;;20674;6839;117100;-70
2023/07/31 00:19:58;;;;;;;2.35;2.15;;;18.70;51.90;;;;;;20682;6840;117459;-70
2023/07/31 00:22:24;;;;;;;4.37;2.47;;;18.60;51.80;;;;;;20443;6841;336521;-70
2023/07/31 00:24:49;;;;;;;2.45;2.25;;;18.80;51.80;;;;;;20619;6860;117344;-69
2023/07/31 00:27:15;;;;;;;2.67;1.90;;;18.70;51.90;;;;;;20660;6845;120105;-70
2023/07/31 00:29:40;;;;;;;2.90;1.90;;;18.50;52.20;;;;;;20710;6845;116915;-70
2023/07/31 00:32:06;;;;;;;2.10;2.00;;;18.30;52.60;;;;;;20720;6841;117525;-70
2023/07/31 00:34:32;;;;;;;3.08;2.28;;;18.10;52.90;;;;;;20500;6841;277697;-70
2023/07/31 00:36:57;;;;;;;4.90;2.20;;;18.30;52.50;;;;;;20726;6841;117344;-70
2023/07/31 00:39:24;;;;;;;2.50;2.30;;;18.50;52.00;;;;;;20513;6841;311990;-69
2023/07/31 00:41:49;;;;;;;3.10;2.50;;;18.50;52.00;;;;;;20519;6841;281515;-70
2023/07/31 00:44:15;;;;;;;2.90;2.23;;;18.80;51.40;;;;;;20674;6852;119426;-70
2023/07/31 00:46:40;;;;;;;3.00;2.60;;;18.70;51.60;;;;;;20515;6841;308408;-70
2023/07/31 00:49:06;;;;;;;2.20;2.00;;;18.80;51.20;;;;;;20676;6860;121643;-70
2023/07/31 00:51:31;;;;;;;5.13;2.57;;;18.60;51.70;;;;;;20499;6845;307153;-70
2023/07/31 00:53:57;;;;;;;2.67;2.58;;;18.60;51.90;;;;;;20671;6860;117129;-70
2023/07/31 00:56:23;;;;;;;2.60;2.30;;;18.50;52.20;;;;;;20476;6845;296281;-70
2023/07/31 00:58:48;;;;;;;2.50;2.15;;;18.60;52.00;;;;;;20698;6845;117377;-70
2023/07/31 01:01:14;;;;;;;2.70;2.50;;;18.50;52.40;;;;;;20516;6841;277546;-70
2023/07/31 01:03:40;;;;;;;5.95;2.75;;;18.80;51.70;;;;;;20503;6841;336074;-70
2023/07/31 01:06:16;;;;;;;2.70;2.50;;;18.80;51.80;;;;;;20720;6841;117122;-70
2023/07/31 01:08:41;;;;;;;2.27;2.07;;;18.60;52.10;;;;;;20701;6841;120232;-70
2023/07/31 01:11:06;;;;;;;3.30;2.40;;;18.30;53.00;;;;;;20504;6841;307000;-70
2023/07/31 01:13:32;;;;;;;2.40;2.20;;;18.40;52.90;;;;;;20716;6841;117463;-70
2023/07/31 01:15:57;;;;;;;2.63;2.40;;;18.30;53.00;;;;;;20476;6852;308994;-70
2023/07/31 01:18:23;;;;;;;3.00;2.57;;;18.40;52.60;;;;;;20697;6841;117238;-70
2023/07/31 01:20:48;;;;;;;2.87;2.25;;;18.30;53.00;;;;;;20454;6860;314907;-69
2023/07/31 01:23:31;;;;;;;3.03;1.70;;;18.30;52.40;;;;;;20691;6845;117243;-69
2023/07/31 01:26:13;;;;;;;3.40;2.13;;;18.30;52.40;;;;;;20682;6845;117332;-70
2023/07/31 01:28:39;;;;;;;2.60;2.20;;;18.00;53.00;;;;;;20690;6844;117365;-69
2023/07/31 01:31:05;;;;;;;4.85;2.50;;;17.80;53.60;;;;;;20495;6844;278029;-71
2023/07/31 01:33:30;;;;;;;2.53;2.33;;;17.90;53.70;;;;;;20486;6845;307389;-70
2023/07/31 01:35:56;;;;;;;3.62;2.40;;;18.20;53.00;;;;;;20508;6841;307041;-70
2023/07/31 01:38:22;;;;;;;2.40;2.20;;;18.50;52.20;;;;;;20702;6841;117484;-70
2023/07/31 01:40:47;;;;;;;2.47;2.20;;;18.40;52.60;;;;;;20512;6841;277766;-71
2023/07/31 01:43:13;;;;;;;4.37;2.30;;;18.40;51.80;;;;;;20495;6841;310690;-71
2023/07/31 01:45:38;;;;;;;4.85;2.20;;;18.60;51.70;;;;;;20723;6841;118217;-71
2023/07/31 01:48:04;;;;;;;3.87;2.13;;;18.10;52.80;;;;;;20727;6841;117478;-71
2023/07/31 01:50:30;;;;;;;2.40;2.20;;;18.10;52.80;;;;;;20714;6841;117311;-70
2023/07/31 01:52:57;;;;;;;5.25;2.25;;;17.90;53.70;;;;;;20735;6841;118452;-71
2023/07/31 01:55:22;;;;;;;4.10;2.37;;;17.70;54.10;;;;;;20733;6841;121036;-71
2023/07/31 01:57:48;;;;;;;4.20;2.33;;;17.50;54.50;;;;;;20726;6841;120434;-70
2023/07/31 02:00:13;;;;;;;2.30;2.10;;;17.30;54.90;;;;;;20716;6841;117602;-71
2023/07/31 02:02:39;;;;;;;2.80;2.10;;;17.20;55.20;;;;;;20747;6841;67842;-69
2023/07/31 02:05:05;;;;;;;5.60;2.60;;;17.10;55.50;;;;;;20510;6841;339047;-71
2023/07/31 02:07:30;;;;;;;2.90;2.40;;;17.40;55.40;;;;;;20510;6841;292066;-70
2023/07/31 02:09:56;;;;;;;4.40;2.40;;;17.80;53.80;;;;;;20720;6841;119070;-70
2023/07/31 02:12:21;;;;;;;2.80;2.13;;;17.80;53.90;;;;;;20704;6841;117638;-71
2023/07/31 02:14:48;;;;;;;2.17;2.00;;;17.40;54.80;;;;;;20690;6852;117587;-71
2023/07/31 02:17:13;;;;;;;2.65;2.45;;;17.40;54.80;;;;;;20520;6841;306565;-71
2023/07/31 02:19:39;;;;;;;3.35;2.37;;;17.60;54.00;;;;;;20536;6841;318912;-71
2023/07/31 02:22:04;;;;;;;2.53;2.20;;;18.00;53.20;;;;;;20709;6852;118531;-69
2023/07/31 02:24:31;;;;;;;2.87;2.35;;;18.00;53.40;;;;;;20512;6841;281736;-70
2023/07/31 02:26:56;;;;;;;2.20;2.07;;;18.00;52.80;;;;;;20716;6841;120188;-71
2023/07/31 02:29:22;;;;;;;2.97;2.00;;;17.90;53.90;;;;;;20686;6852;117215;-70
2023/07/31 02:31:47;;;;;;;3.20;2.40;;;17.70;53.90;;;;;;20517;6841;278450;-70
2023/07/31 02:34:13;;;;;;;3.03;2.10;;;17.80;53.20;;;;;;20645;6860;118491;-71
2023/07/31 02:36:39;;;;;;;2.63;2.40;;;17.90;53.90;;;;;;20496;6845;284289;-70
2023/07/31 02:39:05;;;;;;;2.20;2.10;;;17.90;53.20;;;;;;20670;6860;118292;-70
2023/07/31 02:41:30;;;;;;;2.57;2.20;;;17.90;53.50;;;;;;20708;6844;116909;-70
2023/07/31 02:43:56;;;;;;;2.25;1.90;;;17.70;54.10;;;;;;20719;6845;117060;-70
2023/07/31 02:46:24;;;;;;;3.25;2.67;;;17.40;54.40;;;;;;20480;6845;281633;-71
2023/07/31 02:48:47;;;;;;;2.83;2.20;;;17.60;53.90;;;;;;20514;6845;278439;-70
2023/07/31 02:51:13;;;;;;;3.80;2.40;;;18.00;52.90;;;;;;20517;6845;307282;-70
2023/07/31 02:53:38;;;;;;;2.47;2.20;;;18.30;52.50;;;;;;20709;6845;117151;-70
2023/07/31 02:56:04;;;;;;;3.03;2.40;;;18.20;53.00;;;;;;20463;6860;279029;-70
2023/07/31 02:58:29;;;;;;;2.57;2.07;;;18.20;52.50;;;;;;20690;6845;118026;-70
2023/07/31 03:00:56;;;;;;;2.70;2.17;;;18.20;52.40;;;;;;20497;6845;307619;-71
2023/07/31 03:03:21;;;;;;;2.10;1.90;;;18.10;52.30;;;;;;20694;6845;118265;-71
2023/07/31 03:05:47;;;;;;;3.80;1.70;;;17.70;54.00;;;;;;20726;6841;120381;-71
2023/07/31 03:08:14;;;;;;;2.30;2.10;;;17.80;53.30;;;;;;20504;6841;319196;-70
2023/07/31 03:10:39;;;;;;;2.40;2.00;;;17.80;52.60;;;;;;20694;6852;117865;-71
2023/07/31 03:13:05;;;;;;;2.70;2.20;;;17.80;53.00;;;;;;20725;6841;117540;-70
2023/07/31 03:15:32;;;;;;;2.22;2.03;;;17.60;53.60;;;;;;20689;6852;118590;-70
2023/07/31 03:17:57;;;;;;;2.50;2.30;;;17.30;53.90;;;;;;20508;6841;277633;-71
2023/07/31 03:20:23;;;;;;;2.35;1.95;;;17.60;53.40;;;;;;20488;6841;307428;-70
2023/07/31 03:22:49;;;;;;;3.27;2.03;;;17.90;52.60;;;;;;20727;6841;118213;-71
2023/07/31 03:25:14;;;;;;;4.28;2.17;;;17.90;53.00;;;;;;20453;6860;327790;-72
2023/07/31 03:27:40;;;;;;;2.50;1.70;;;17.90;52.70;;;;;;20709;6845;118709;-71
2023/07/31 03:30:06;;;;;;;3.00;1.97;;;17.90;52.70;;;;;;20707;6845;117283;-72
2023/07/31 03:32:32;;;;;;;2.43;2.23;;;17.70;53.30;;;;;;20436;6860;278525;-71
2023/07/31 03:34:58;;;;;;;4.50;1.90;;;17.80;52.10;;;;;;20708;6845;117752;-72
2023/07/31 03:37:24;;;;;;;2.83;2.00;;;17.90;52.10;;;;;;20494;6845;343141;-72
2023/07/31 03:39:49;;;;;;;4.67;1.97;;;18.00;52.20;;;;;;20707;6845;118366;-73
2023/07/31 03:42:16;;;;;;;4.73;1.90;;;17.70;53.10;;;;;;20690;6845;117279;-72
2023/07/31 03:44:42;;;;;;;2.83;1.70;;;17.70;53.10;;;;;;20706;6845;117937;-73
2023/07/31 03:47:08;;;;;;;2.45;2.25;;;17.50;53.50;;;;;;20514;6841;340092;-73
2023/07/31 03:49:33;;;;;;;2.30;2.13;;;17.70;52.60;;;;;;20511;6841;311970;-73
2023/07/31 03:51:59;;;;;;;3.70;2.37;;;18.10;52.10;;;;;;20458;6850;279010;-73
2023/07/31 03:54:25;;;;;;;5.37;1.98;;;18.30;51.40;;;;;;20682;6840;127481;-73
2023/07/31 03:56:51;;;;;;;2.00;1.80;;;17.90;52.60;;;;;;20680;6860;118963;-72
2023/07/31 03:59:17;;;;;;;3.47;2.03;;;17.70;53.20;;;;;;20709;6845;117194;-73
2023/07/31 04:01:43;;;;;;;3.90;2.00;;;17.70;53.20;;;;;;20728;6841;116995;-73
2023/07/31 04:04:08;;;;;;;1.80;1.70;;;17.50;53.60;;;;;;20725;6841;118328;-73
2023/07/31 04:06:34;;;;;;;3.97;1.93;;;17.40;54.00;;;;;;20698;6841;119066;-73
2023/07/31 04:09:00;;;;;;;2.47;2.28;;;17.30;54.20;;;;;;20518;6841;291695;-71
2023/07/31 04:11:26;;;;;;;2.33;2.10;;;18.00;52.70;;;;;;20454;6860;278997;-71
2023/07/31 04:13:51;;;;;;;1.90;1.80;;;18.00;52.30;;;;;;20714;6845;117604;-72
2023/07/31 04:16:18;;;;;;;5.43;4.93;;;17.80;53.10;;;;;;20692;6845;129083;-71
2023/07/31 04:18:43;;;;;;;2.37;1.77;;;17.80;53.00;;;;;;20662;6860;118303;-73
2023/07/31 04:21:10;;;;;;;2.97;2.50;;;17.70;53.50;;;;;;20499;6845;341695;-73
2023/07/31 04:23:36;;;;;;;2.20;2.00;;;17.90;52.10;;;;;;20496;6845;308336;-72
2023/07/31 04:26:01;;;;;;;2.30;2.10;;;18.30;51.40;;;;;;20716;6845;117575;-73
2023/07/31 04:28:27;;;;;;;3.60;2.13;;;18.30;51.80;;;;;;20482;6845;293303;-73
2023/07/31 04:30:53;;;;;;;2.00;1.90;;;18.40;51.10;;;;;;20710;6845;117286;-72
2023/07/31 04:33:19;;;;;;;3.03;2.17;;;18.50;51.30;;;;;;20499;6845;309267;-72
2023/07/31 04:35:52;;;;;;;2.60;1.80;;;18.40;51.20;;;;;;20715;6845;121116;-73
2023/07/31 04:38:16;;;;;;;4.15;2.40;;;18.40;51.70;;;;;;20487;6845;278103;-73
2023/07/31 04:40:42;;;;;;;3.00;2.23;;;18.50;51.20;;;;;;20671;6860;117492;-73
2023/07/31 04:43:09;;;;;;;3.07;2.30;;;18.40;52.40;;;;;;20501;6845;307500;-72
2023/07/31 04:45:34;;;;;;;1.80;1.70;;;18.50;51.30;;;;;;20706;6845;118558;-73
2023/07/31 04:48:00;;;;;;;2.62;2.40;;;18.50;51.90;;;;;;20499;6845;307561;-73
2023/07/31 04:50:26;;;;;;;4.57;2.22;;;18.60;51.20;;;;;;20442;6860;283121;-71
2023/07/31 04:52:51;;;;;;;2.97;2.40;;;18.90;50.80;;;;;;20493;6845;331200;-73
2023/07/31 04:55:16;;;;;;;2.47;2.07;;;19.20;50.30;;;;;;20712;6845;117646;-72
2023/07/31 04:57:42;;;;;;;2.23;2.00;;;19.00;50.80;;;;;;20706;6845;123087;-72
2023/07/31 05:00:08;;;;;;;4.22;2.17;;;18.70;51.50;;;;;;20457;6860;337752;-73
2023/07/31 05:02:33;;;;;;;2.10;1.80;;;18.80;50.90;;;;;;20692;6845;118346;-72
2023/07/31 05:04:59;;;;;;;2.37;2.00;;;18.80;51.50;;;;;;20501;6844;308841;-71
2023/07/31 05:07:25;;;;;;;3.15;2.30;;;19.10;50.30;;;;;;20449;6860;309551;-73
2023/07/31 05:09:51;;;;;;;2.50;2.30;;;19.10;50.30;;;;;;20709;6845;118252;-73
2023/07/31 05:12:16;;;;;;;3.40;2.37;;;19.00;50.90;;;;;;20489;6845;307495;-71
2023/07/31 05:14:42;;;;;;;2.40;2.20;;;19.10;50.70;;;;;;20506;6845;278007;-73
2023/07/31 05:17:08;;;;;;;3.30;1.97;;;19.30;50.00;;;;;;20495;6845;308029;-73
2023/07/31 05:19:33;;;;;;;4.13;2.57;;;19.50;49.50;;;;;;20517;6845;307149;-72
2023/07/31 05:21:59;;;;;;;2.13;1.90;;;19.70;49.30;;;;;;20733;6845;119093;-73
2023/07/31 05:24:29;;;;;;;3.25;2.47;;;19.50;50.10;;;;;;20513;6845;278122;-73
2023/07/31 05:26:55;;;;;;;2.37;2.17;;;19.40;49.60;;;;;;20490;6845;307332;-73
2023/07/31 05:29:20;;;;;;;2.33;2.13;;;19.60;49.30;;;;;;20496;6845;309166;-72
2023/07/31 05:31:46;;;;;;;3.07;2.30;;;19.90;49.00;;;;;;20453;6860;310632;-73
2023/07/31 05:34:12;;;;;;;2.60;2.03;;;19.90;48.90;;;;;;20682;6845;118755;-73
2023/07/31 05:36:37;;;;;;;2.23;1.80;;;19.70;50.40;;;;;;20602;6848;118095;-72
2023/07/31 05:39:08;;;;;;;2.37;2.10;;;19.40;50.60;;;;;;20709;6834;118274;-73
2023/07/31 05:41:29;;;;;;;2.50;2.30;;;19.20;51.30;;;;;;20506;6839;278461;-71
2023/07/31 05:43:54;;;;;;;2.33;2.12;;;19.30;50.10;;;;;;20521;6839;312681;-73
2023/07/31 05:46:20;;;;;;;3.28;2.30;;;19.70;49.80;;;;;;20490;6839;307608;-73
2023/07/31 05:48:45;;;;;;;7.03;2.30;;;20.00;49.30;;;;;;20728;6839;117886;-72
2023/07/31 05:51:11;;;;;;;2.92;2.40;;;19.90;50.00;;;;;;20512;6839;309254;-72
2023/07/31 05:53:40;;;;;;;2.53;2.20;;;19.90;49.50;;;;;;20682;6854;117696;-72
2023/07/31 05:56:02;;;;;;;2.37;2.17;;;19.90;50.20;;;;;;20457;6854;338538;-71
2023/07/31 05:58:28;;;;;;;2.30;2.07;;;20.00;49.70;;;;;;20704;6839;117813;-73
2023/07/31 06:00:55;;;;;;;3.22;2.10;;;20.00;51.10;;;;;;20688;6854;117425;-72
2023/07/31 06:03:21;;;;;;;4.77;2.13;;;19.90;51.10;;;;;;20731;6839;119694;-72
2023/07/31 06:05:47;;;;;;;4.30;2.30;;;19.90;51.60;;;;;;20517;6839;327140;-72
2023/07/31 06:08:12;;;;;;;2.80;2.10;;;20.20;51.50;;;;;;20707;6839;121496;-73
2023/07/31 06:10:38;;;;;;;3.13;2.20;;;20.20;51.60;;;;;;20720;6839;119481;-72
2023/07/31 06:13:04;;;;;;;3.12;2.70;;;20.40;52.00;;;;;;20525;6839;278047;-73
2023/07/31 06:15:31;;;;;;;3.37;2.20;;;20.40;51.70;;;;;;20465;6853;306293;-73
2023/07/31 06:17:57;;;;;;;4.43;2.07;;;20.70;50.70;;;;;;20729;6839;116913;-73
2023/07/31 06:20:22;;;;;;;3.22;2.60;;;20.70;51.00;;;;;;20497;6839;308151;-73
2023/07/31 06:22:48;;;;;;;2.40;2.03;;;20.80;50.60;;;;;;20748;6834;117168;-72
2023/07/31 06:25:13;;;;;;;3.73;2.53;;;20.70;51.00;;;;;;20732;6839;117871;-73
2023/07/31 06:27:39;;;;;;;3.08;2.30;;;20.50;51.50;;;;;;20510;6839;311855;-73
2023/07/31 06:30:05;;;;;;;2.17;1.93;;;20.60;50.90;;;;;;20725;6839;120832;-73
2023/07/31 06:32:31;;;;;;;3.42;2.33;;;20.60;51.20;;;;;;20448;6854;459911;-73
2023/07/31 06:34:57;;;;;;;3.50;2.30;;;20.60;50.80;;;;;;20728;6839;119348;-73
2023/07/31 06:37:22;;;;;;;4.03;2.50;;;20.60;50.80;;;;;;20524;6839;307132;-72
2023/07/31 06:39:48;;;;;;;2.77;2.57;;;20.70;50.70;;;;;;20517;6839;278116;-73
2023/07/31 06:42:14;;;;;;;3.43;2.23;;;21.00;50.00;;;;;;20714;6839;118048;-73
2023/07/31 06:44:39;;;;;;;3.73;2.67;;;21.00;50.70;;;;;;20515;6839;309749;-73
2023/07/31 06:47:05;;;;;;;3.37;2.22;;;21.40;49.70;;;;;;20529;6839;336754;-71
2023/07/31 06:49:30;;;;;;;3.80;1.80;;;22.10;48.50;;;;;;20729;6839;117068;-73
2023/07/31 06:51:56;;;;;;;3.93;1.80;;;22.70;49.70;;;;;;20685;6854;117917;-73
2023/07/31 06:54:22;;;;;;;2.30;2.10;;;23.30;46.60;;;;;;20504;6839;278988;-73
2023/07/31 06:56:48;;;;;;;2.43;2.23;;;23.30;46.60;;;;;;20511;6839;310444;-73
2023/07/31 06:59:13;;;;;;;4.22;2.25;;;23.80;45.70;;;;;;20515;6839;337936;-72
2023/07/31 07:01:39;;;;;;;2.20;2.10;;;24.30;45.00;;;;;;20690;6854;117697;-72
2023/07/31 07:04:05;;;;;;;2.07;1.80;;;24.30;45.80;;;;;;20682;6854;118292;-72
2023/07/31 07:06:30;;;;;;;2.80;2.03;;;24.20;46.60;;;;;;20708;6839;117366;-73
2023/07/31 07:08:57;;;;;;;3.07;1.83;;;24.00;47.00;;;;;;20724;6839;118801;-72
2023/07/31 07:11:23;;;;;;;3.93;2.30;;;23.90;47.30;;;;;;20530;6839;278566;-73
2023/07/31 07:13:49;;;;;;;2.93;2.03;;;24.00;45.10;;;;;;20738;6839;117120;-71
2023/07/31 07:16:14;;;;;;;3.40;2.13;;;24.00;45.80;;;;;;20731;6835;118635;-72
2023/07/31 07:18:39;;;;;;;2.47;2.28;;;23.70;46.50;;;;;;20529;6839;307564;-73
2023/07/31 07:21:05;;;;;;;3.60;2.30;;;23.80;45.20;;;;;;20728;6839;117675;-72
2023/07/31 07:23:30;;;;;;;2.95;2.30;;;23.80;46.10;;;;;;20522;6839;278142;-72
2023/07/31 07:25:56;;;;;;;2.00;1.90;;;24.00;45.20;;;;;;20729;6839;118049;-73
2023/07/31 07:28:21;;;;;;;3.57;2.30;;;24.00;45.70;;;;;;20505;6838;282520;-72
2023/07/31 07:30:50;;;;;;;3.17;2.28;;;24.10;44.70;;;;;;20478;6854;339550;-72
2023/07/31 07:33:16;;;;;;;2.20;2.00;;;24.30;43.70;;;;;;20705;6839;118302;-72
2023/07/31 07:35:42;;;;;;;3.83;2.30;;;23.90;45.30;;;;;;20737;6839;117952;-73
2023/07/31 07:38:09;;;;;;;4.43;2.50;;;23.90;44.90;;;;;;20526;6839;277994;-72
2023/07/31 07:40:34;;;;;;;2.37;2.07;;;23.80;44.80;;;;;;20713;6839;118067;-72
2023/07/31 07:43:00;;;;;;;3.33;2.22;;;23.80;45.80;;;;;;20520;6834;325363;-71
2023/07/31 07:45:25;;;;;;;3.77;2.40;;;23.90;45.00;;;;;;20531;6834;282854;-72
2023/07/31 07:47:51;;;;;;;2.27;2.07;;;24.00;44.10;;;;;;20747;6834;117001;-73
2023/07/31 07:50:17;;;;;;;3.45;2.30;;;24.00;43.80;;;;;;20511;6834;278788;-73
2023/07/31 07:52:43;;;;;;;4.63;2.37;;;24.00;43.80;;;;;;20533;6834;307002;-72
2023/07/31 07:55:09;;;;;;;6.22;2.42;;;24.40;43.30;;;;;;20523;6839;337089;-72
2023/07/31 07:57:35;;;;;;;3.12;2.50;;;24.40;43.30;;;;;;20520;6834;307965;-72
2023/07/31 08:00:00;;;;;;;5.23;2.37;;;24.60;44.10;;;;;;20538;6839;281884;-73
2023/07/31 08:02:26;;;;;;;2.55;2.10;;;25.00;43.60;;;;;;20459;6854;309347;-72
2023/07/31 08:04:53;;;;;;;3.37;2.10;;;25.30;43.40;;;;;;20533;6839;330095;-71
2023/07/31 08:07:18;;;;;;;4.17;2.27;;;25.60;41.90;;;;;;20739;6839;117115;-73
2023/07/31 08:09:44;;;;;;;3.12;2.50;;;25.60;42.50;;;;;;20523;6839;337727;-73
2023/07/31 08:12:09;;;;;;;3.05;2.00;;;25.50;41.00;;;;;;20730;6839;117495;-72
2023/07/31 08:14:35;;;;;;;3.00;2.30;;;25.50;42.50;;;;;;20693;6839;118396;-72
2023/07/31 08:17:00;;;;;;;2.93;2.20;;;25.40;43.10;;;;;;20733;6839;118095;-72
2023/07/31 08:19:26;;;;;;;2.60;2.20;;;25.30;43.60;;;;;;20765;6835;117061;-71
2023/07/31 08:21:51;;;;;;;4.90;2.17;;;25.20;44.00;;;;;;20587;6839;305978;-72
2023/07/31 08:24:17;;;;;;;2.95;2.37;;;25.60;42.30;;;;;;20530;6854;286589;-71
2023/07/31 08:26:43;;;;;;;3.42;2.00;;;26.00;40.10;;;;;;20778;6839;121258;-73
2023/07/31 08:29:08;;;;;;;3.78;2.45;;;26.10;41.10;;;;;;20529;6839;307588;-72
2023/07/31 08:31:35;;;;;;;2.60;2.20;;;26.20;41.00;;;;;;20756;6835;122043;-72
2023/07/31 08:34:00;;;;;;;3.03;2.65;;;26.10;40.90;;;;;;20539;6835;336171;-72
2023/07/31 08:36:27;;;;;;;2.58;2.37;;;26.30;39.30;;;;;;20516;6835;294097;-71
2023/07/31 08:38:53;;;;;;;3.23;2.10;;;26.60;37.70;;;;;;20732;6838;118732;-72
2023/07/31 08:41:18;;;;;;;4.37;2.50;;;26.50;39.10;;;;;;20476;6854;337810;-72
2023/07/31 08:43:44;;;;;;;2.87;2.55;;;26.60;37.50;;;;;;20518;6839;308023;-72
2023/07/31 08:46:10;;;;;;;5.35;2.60;;;26.80;38.30;;;;;;20738;6834;118636;-72
2023/07/31 08:48:36;;;;;;;3.03;2.10;;;26.70;38.20;;;;;;20710;6839;117174;-72
2023/07/31 08:51:01;;;;;;;3.00;2.10;;;26.40;38.90;;;;;;20745;6834;118534;-72
2023/07/31 08:53:27;;;;;;;2.67;2.43;;;26.20;39.60;;;;;;20517;6839;306628;-74
2023/07/31 08:55:53;;;;;;;6.30;2.53;;;26.20;39.00;;;;;;20727;6839;123396;-72
2023/07/31 08:58:18;;;;;;;3.47;2.47;;;26.10;39.20;;;;;;20493;6839;307929;-72
2023/07/31 09:00:45;;;;;;;4.30;2.20;;;26.10;38.30;;;;;;20738;6834;117627;-73
2023/07/31 09:03:17;;;;;;;5.73;2.73;;;26.00;39.60;;;;;;20518;6839;277810;-73
2023/07/31 09:05:43;;;;;;;2.73;2.53;;;26.30;37.90;;;;;;20725;6839;117175;-74
2023/07/31 09:08:08;;;;;;;2.87;2.63;;;26.30;39.00;;;;;;20527;6834;340921;-73
2023/07/31 09:10:34;;;;;;;4.45;2.60;;;26.50;38.10;;;;;;20517;6834;277167;-73
2023/07/31 09:12:59;;;;;;;3.30;2.65;;;26.90;37.90;;;;;;20526;6834;306728;-72
2023/07/31 09:15:26;;;;;;;4.70;2.90;;;27.40;36.30;;;;;;20532;6834;336322;-73
2023/07/31 09:17:58;;;;;;;2.72;2.50;;;27.70;36.70;;;;;;20535;6835;307740;-72
2023/07/31 09:20:24;;;;;;;3.47;2.90;;;27.90;36.00;;;;;;20482;6839;305232;-72
2023/07/31 09:22:49;;;;;;;4.90;2.70;;;28.20;35.90;;;;;;20538;6835;306281;-74
2023/07/31 09:25:16;;;;;;;4.12;2.70;;;28.30;35.40;;;;;;20526;6835;308578;-73
2023/07/31 09:27:47;;;;;;;4.50;2.50;;;28.40;35.00;;;;;;20744;6835;118215;-72
2023/07/31 09:30:12;;;;;;;3.70;2.90;;;28.40;36.40;;;;;;20511;6835;282300;-73
2023/07/31 09:32:39;;;;;;;6.33;2.90;;;28.60;34.30;;;;;;20535;6835;336775;-73
2023/07/31 09:35:15;;;;;;;3.50;2.73;;;28.70;34.00;;;;;;20517;6839;307580;-73
2023/07/31 09:37:41;;;;;;;4.77;2.93;;;28.60;33.90;;;;;;20521;6839;307745;-72
2023/07/31 09:40:07;;;;;;;7.13;3.07;;;28.20;36.00;;;;;;20684;6854;118875;-73
2023/07/31 09:42:34;;;;;;;4.33;2.70;;;27.80;37.30;;;;;;20710;6839;119618;-73
2023/07/31 09:45:09;;;;;;;5.23;2.57;;;27.80;37.20;;;;;;20727;6839;118231;-72
2023/07/31 09:47:35;;;;;;;6.30;2.80;;;27.50;37.80;;;;;;20472;6854;279323;-73
2023/07/31 09:50:00;;;;;;;3.70;2.90;;;27.50;36.20;;;;;;20727;6838;118320;-73
2023/07/31 09:52:26;;;;;;;3.78;2.87;;;27.40;37.30;;;;;;20507;6839;278247;-74
2023/07/31 09:54:51;;;;;;;4.75;2.87;;;27.40;36.80;;;;;;20742;6834;117693;-73
2023/07/31 09:57:17;;;;;;;2.70;2.50;;;27.30;37.80;;;;;;20731;6839;118934;-74
2023/07/31 09:59:43;;;;;;;3.43;2.80;;;27.10;36.40;;;;;;20473;6854;282311;-73
2023/07/31 10:02:09;;;;;;;3.57;2.97;;;27.10;36.40;;;;;;20524;6839;278596;-73
2023/07/31 10:04:34;;;;;;;4.03;3.15;;;27.20;36.00;;;;;;20472;6839;307772;-73
2023/07/31 10:07:01;;;;;;;4.30;2.90;;;27.30;37.60;;;;;;20759;6834;117050;-74
2023/07/31 10:09:26;;;;;;;4.65;2.95;;;27.20;37.40;;;;;;20513;6839;307594;-72
2023/07/31 10:11:52;;;;;;;5.32;2.90;;;27.20;36.40;;;;;;20512;6834;307256;-73
2023/07/31 10:14:18;;;;;;;8.70;2.83;;;27.30;38.30;;;;;;20692;6839;118882;-73
2023/07/31 10:16:44;;;;;;;4.43;2.83;;;27.30;38.00;;;;;;20525;6834;311489;-73
2023/07/31 10:19:10;;;;;;;2.63;2.40;;;27.50;37.70;;;;;;20731;6839;117331;-75
2023/07/31 10:21:37;;;;;;;3.25;2.80;;;27.80;36.60;;;;;;20513;6839;336658;-78
2023/07/31 10:24:03;;;;;;;3.67;2.70;;;28.00;36.30;;;;;;20526;6834;277863;-72
2023/07/31 10:26:28;;;;;;;3.80;2.30;;;28.00;36.00;;;;;;20694;6834;146105;-73
2023/07/31 10:28:54;;;;;;;5.00;2.90;;;27.90;36.70;;;;;;20534;6835;278349;-73
2023/07/31 10:31:20;;;;;;;4.40;2.83;;;27.90;37.40;;;;;;20728;6839;117120;-73
2023/07/31 10:33:46;;;;;;;2.93;2.47;;;27.90;37.30;;;;;;20725;6839;117651;-74
2023/07/31 10:36:18;;;;;;;3.77;2.47;;;27.80;38.00;;;;;;20733;6839;117169;-73
2023/07/31 10:38:44;;;;;;;5.13;2.80;;;27.80;38.20;;;;;;20470;6854;312332;-73
2023/07/31 10:41:11;;;;;;;4.65;3.12;;;28.10;36.60;;;;;;20466;6854;342197;-72
2023/07/31 10:43:37;;;;;;;2.97;2.17;;;28.60;37.30;;;;;;20726;6839;117207;-75
2023/07/31 10:46:07;;;;;;;3.35;2.87;;;28.70;35.60;;;;;;20532;6835;311204;-73
2023/07/31 10:48:36;;;;;;;2.80;2.60;;;28.70;35.50;;;;;;20491;6839;434963;-72
2023/07/31 10:51:01;;;;;;;4.07;2.83;;;29.10;36.10;;;;;;20537;6835;289617;-74
2023/07/31 10:53:31;;;;;;;2.95;2.65;;;29.80;34.80;;;;;;20497;6839;337484;-75
2023/07/31 10:55:59;;;;;;;2.93;2.63;;;29.70;35.40;;;;;;20747;6835;118246;-73
2023/07/31 10:58:25;;;;;;;3.23;2.93;;;29.70;35.40;;;;;;20497;6839;277753;-72
2023/07/31 11:00:50;;;;;;;3.40;2.77;;;29.80;33.70;;;;;;20483;6854;278156;-73
2023/07/31 11:03:16;;;;;;;5.03;2.70;;;29.90;33.00;;;;;;20506;6838;342319;-73
2023/07/31 11:05:58;;;;;;;3.03;2.70;;;30.00;34.70;;;;;;20724;6839;119389;-75
2023/07/31 11:08:27;;;;;;;6.73;2.77;;;30.00;34.80;;;;;;20705;6839;127300;-73
2023/07/31 11:11:02;;;;;;;4.43;2.80;;;29.60;35.40;;;;;;20528;6834;277976;-73
2023/07/31 11:13:27;;;;;;;3.70;2.70;;;29.70;33.90;;;;;;20503;6834;312348;-72
2023/07/31 11:15:53;;;;;;;3.40;2.63;;;30.00;35.00;;;;;;20532;6834;336854;-72
2023/07/31 11:18:18;;;;;;;4.27;2.90;;;30.20;33.40;;;;;;20505;6839;278876;-72
2023/07/31 11:20:44;;;;;;;2.83;2.60;;;30.40;32.80;;;;;;20520;6839;307563;-72
2023/07/31 11:23:10;;;;;;;5.97;2.50;;;30.40;32.00;;;;;;20754;6839;117173;-72
2023/07/31 11:25:35;;;;;;;4.12;2.62;;;30.20;33.40;;;;;;20520;6854;292069;-72
2023/07/31 11:28:04;;;;;;;3.43;2.70;;;30.00;32.60;;;;;;20570;6839;281057;-72
2023/07/31 11:30:31;;;;;;;3.97;2.60;;;30.10;32.50;;;;;;20708;6839;118942;-73
2023/07/31 11:32:57;;;;;;;2.70;2.50;;;29.80;33.50;;;;;;20738;6834;122543;-73
2023/07/31 11:35:22;;;;;;;2.90;2.65;;;29.50;34.20;;;;;;20534;6834;306617;-73
2023/07/31 11:37:48;;;;;;;4.22;2.67;;;29.40;33.30;;;;;;20528;6839;334701;-73
2023/07/31 11:40:13;;;;;;;4.30;2.80;;;29.60;34.40;;;;;;20707;6839;117175;-73
2023/07/31 11:42:39;;;;;;;4.43;2.50;;;29.50;34.60;;;;;;20715;6839;118591;-73
2023/07/31 11:45:05;;;;;;;3.23;2.53;;;29.20;35.20;;;;;;20740;6835;117048;-72
2023/07/31 11:47:30;;;;;;;3.10;2.80;;;29.00;36.00;;;;;;20507;6839;283456;-73
2023/07/31 11:49:56;;;;;;;2.90;2.70;;;29.10;35.00;;;;;;20503;6835;312637;-73
2023/07/31 11:52:23;;;;;;;2.80;2.60;;;29.40;34.60;;;;;;20707;6835;126354;-73
2023/07/31 11:54:47;;;;;;;3.10;2.80;;;29.30;34.30;;;;;;20501;6839;313144;-73
2023/07/31 11:57:13;;;;;;;2.83;2.23;;;29.20;33.50;;;;;;20747;6835;120864;-73
2023/07/31 11:59:38;;;;;;;4.50;2.90;;;29.10;34.90;;;;;;20525;6839;307670;-73
2023/07/31 12:02:04;;;;;;;4.20;2.93;;;29.20;35.40;;;;;;20747;6835;118361;-73
2023/07/31 12:04:29;;;;;;;4.55;3.03;;;29.20;35.40;;;;;;20496;6839;278082;-72
2023/07/31 12:06:55;;;;;;;5.37;2.90;;;29.30;34.20;;;;;;20726;6835;118360;-72
2023/07/31 12:09:20;;;;;;;2.87;2.60;;;29.10;34.90;;;;;;20727;6835;117525;-73
2023/07/31 12:11:46;;;;;;;34.87;3.87;;;28.90;35.30;;;;;;20721;6835;117080;-73
2023/07/31 12:14:25;;;;;;;32.10;4.65;;;28.50;35.40;;;;;;20668;6852;118652;-71
2023/07/31 12:16:54;;;;;;;3.93;3.07;;;28.20;36.10;;;;;;20504;6839;308164;-73
2023/07/31 12:19:20;;;;;;;3.63;3.33;;;28.50;36.80;;;;;;20429;6839;307964;-72
2023/07/31 12:21:46;;;;;;;3.13;2.90;;;28.50;36.80;;;;;;20733;6839;121011;-74
2023/07/31 12:24:12;;;;;;;4.78;3.20;;;28.40;37.40;;;;;;20530;6834;306624;-73
2023/07/31 12:26:38;;;;;;;4.17;3.13;;;28.10;38.00;;;;;;20698;6839;118309;-73
2023/07/31 12:29:03;;;;;;;3.53;3.20;;;28.10;37.40;;;;;;20503;6839;307424;-73